Time;durP1;ratioP1;P1;durP2;ratioP2;P2;SDS_P1;SDS_P2;PMS_P1;PMS_P2;Temp;Humidity;BMP_temperature;BMP_pressure;BME280_temperature;BME280_humidity;BME280_pressure;Samples;Min_cycle;Max_cycle;Signal;HPM_P1;HPM_P2
2021/06/21 00:00:56;;;;;;;20.75;7.50;;;;;;;;;;5113211;27;20043;-76
2021/06/21 00:03:22;;;;;;;29.17;8.40;;;;;;;;;;5112592;28;20030;-76
2021/06/21 00:05:48;;;;;;;21.70;7.50;;;;;;;;;;5112457;27;20028;-75
2021/06/21 00:08:15;;;;;;;34.55;8.73;;;;;;;;;;5125350;27;20054;-76
2021/06/21 00:10:41;;;;;;;21.52;7.30;;;;;;;;;;5131801;27;20058;-77
2021/06/21 00:13:07;;;;;;;30.37;8.37;;;;;;;;;;5132478;27;20023;-75
2021/06/21 00:15:33;;;;;;;27.80;7.85;;;;;;;;;;5120979;27;20038;-76
2021/06/21 00:17:59;;;;;;;30.47;7.80;;;;;;;;;;5115220;27;20029;-75
2021/06/21 00:20:26;;;;;;;31.20;7.65;;;;;;;;;;5112049;28;20395;-76
2021/06/21 00:22:53;;;;;;;29.48;7.63;;;;;;;;;;5112820;28;20031;-75
2021/06/21 00:25:19;;;;;;;21.55;9.15;;;;;;;;;;5109730;28;20028;-76
2021/06/21 00:27:46;;;;;;;31.03;8.90;;;;;;;;;;5112227;27;20028;-75
2021/06/21 00:30:14;;;;;;;27.17;8.25;;;;;;;;;;5114540;27;20110;-75
2021/06/21 00:32:40;;;;;;;27.25;8.50;;;;;;;;;;5125242;27;20023;-75
2021/06/21 00:35:07;;;;;;;31.77;8.98;;;;;;;;;;5101786;28;20036;-76
2021/06/21 00:37:33;;;;;;;30.80;8.87;;;;;;;;;;5113428;27;20031;-75
2021/06/21 00:39:59;;;;;;;31.02;8.75;;;;;;;;;;5111900;27;20036;-76
2021/06/21 00:42:25;;;;;;;30.27;8.70;;;;;;;;;;5111504;28;20104;-76
2021/06/21 00:44:51;;;;;;;30.55;8.38;;;;;;;;;;5100951;27;20055;-76
2021/06/21 00:47:18;;;;;;;27.95;8.90;;;;;;;;;;5120373;27;20065;-75
2021/06/21 00:49:44;;;;;;;26.02;8.80;;;;;;;;;;5112040;27;20054;-76
2021/06/21 00:52:15;;;;;;;28.50;8.75;;;;;;;;;;5118993;27;20088;-76
2021/06/21 00:54:41;;;;;;;26.55;8.88;;;;;;;;;;5111699;28;20085;-75
2021/06/21 00:57:07;;;;;;;30.88;8.20;;;;;;;;;;5129331;27;20027;-75
2021/06/21 00:59:33;;;;;;;29.65;9.32;;;;;;;;;;5118701;27;20027;-76
2021/06/21 01:01:59;;;;;;;34.97;10.73;;;;;;;;;;5110811;28;20036;-75
2021/06/21 01:04:25;;;;;;;34.35;9.38;;;;;;;;;;5111722;28;20027;-75
2021/06/21 01:06:51;;;;;;;38.42;10.05;;;;;;;;;;5119291;27;20084;-76
2021/06/21 01:09:18;;;;;;;33.25;10.13;;;;;;;;;;5111271;28;20039;-75
2021/06/21 01:11:47;;;;;;;32.70;9.50;;;;;;;;;;5110808;28;20374;-75
2021/06/21 01:14:16;;;;;;;26.15;8.38;;;;;;;;;;5118957;27;20429;-76
2021/06/21 01:16:44;;;;;;;25.42;9.02;;;;;;;;;;5125271;27;20118;-75
2021/06/21 01:19:13;;;;;;;30.88;9.93;;;;;;;;;;5113665;27;20421;-76
2021/06/21 01:21:58;;;;;;;28.17;9.93;;;;;;;;;;5130580;27;20061;-75
2021/06/21 01:24:42;;;;;;;25.08;9.60;;;;;;;;;;5119938;27;20024;-75
2021/06/21 01:27:27;;;;;;;33.72;9.60;;;;;;;;;;5118655;27;20084;-75
2021/06/21 01:29:59;;;;;;;38.67;10.32;;;;;;;;;;5111216;27;20432;-76
2021/06/21 01:32:24;;;;;;;31.52;10.48;;;;;;;;;;5111603;27;20488;-76
2021/06/21 01:34:51;;;;;;;34.92;10.32;;;;;;;;;;5118700;27;20134;-75
2021/06/21 01:37:19;;;;;;;34.15;9.05;;;;;;;;;;5110383;28;20031;-77
2021/06/21 01:39:50;;;;;;;31.67;10.57;;;;;;;;;;5110780;28;20024;-75
2021/06/21 01:42:19;;;;;;;33.42;10.70;;;;;;;;;;5125729;27;20039;-76
2021/06/21 01:44:47;;;;;;;30.13;9.70;;;;;;;;;;5122451;27;20024;-75
2021/06/21 01:47:15;;;;;;;30.85;10.38;;;;;;;;;;5131023;27;20034;-76
2021/06/21 01:49:44;;;;;;;31.15;9.68;;;;;;;;;;5112186;28;20134;-75
2021/06/21 01:52:10;;;;;;;32.25;10.90;;;;;;;;;;5110098;28;20044;-75
2021/06/21 01:54:37;;;;;;;27.30;10.05;;;;;;;;;;5118808;27;20035;-75
2021/06/21 01:57:04;;;;;;;35.47;10.02;;;;;;;;;;5092579;28;20115;-75
2021/06/21 01:59:30;;;;;;;32.15;9.75;;;;;;;;;;5110594;28;20032;-75
2021/06/21 02:01:57;;;;;;;24.73;10.90;;;;;;;;;;5110878;28;20358;-75
2021/06/21 02:04:24;;;;;;;33.22;9.82;;;;;;;;;;5122346;28;20031;-75
2021/06/21 02:06:51;;;;;;;43.63;10.55;;;;;;;;;;5130554;28;20118;-74
2021/06/21 02:09:20;;;;;;;28.55;11.00;;;;;;;;;;5110899;28;20027;-76
2021/06/21 02:11:47;;;;;;;34.08;10.45;;;;;;;;;;5110495;28;20437;-76
2021/06/21 02:14:13;;;;;;;31.90;9.68;;;;;;;;;;5110042;28;20127;-75
2021/06/21 02:16:39;;;;;;;32.60;12.20;;;;;;;;;;5118198;28;20031;-73
2021/06/21 02:19:06;;;;;;;39.97;10.43;;;;;;;;;;5110282;28;20031;-76
2021/06/21 02:21:32;;;;;;;37.58;10.23;;;;;;;;;;5110467;28;20477;-75
2021/06/21 02:23:58;;;;;;;35.53;10.98;;;;;;;;;;5116647;28;20393;-75
2021/06/21 02:26:25;;;;;;;28.45;9.85;;;;;;;;;;5121481;28;20035;-75
2021/06/21 02:28:56;;;;;;;33.08;11.43;;;;;;;;;;5121967;28;20031;-75
2021/06/21 02:31:22;;;;;;;28.90;10.18;;;;;;;;;;5121210;28;20035;-76
2021/06/21 02:33:48;;;;;;;26.25;10.57;;;;;;;;;;5112359;28;20527;-75
2021/06/21 02:36:14;;;;;;;26.48;10.27;;;;;;;;;;5114593;27;20462;-76
2021/06/21 02:38:40;;;;;;;33.15;10.30;;;;;;;;;;5122536;27;20034;-76
2021/06/21 02:41:07;;;;;;;30.98;9.95;;;;;;;;;;5114019;27;20396;-76
2021/06/21 02:43:33;;;;;;;21.58;9.60;;;;;;;;;;5113980;27;20040;-76
2021/06/21 02:45:59;;;;;;;29.17;10.32;;;;;;;;;;5126896;27;20491;-76
2021/06/21 02:48:25;;;;;;;28.40;11.05;;;;;;;;;;5118206;27;20028;-75
2021/06/21 02:50:53;;;;;;;33.63;10.20;;;;;;;;;;5113625;28;20063;-75
2021/06/21 02:53:38;;;;;;;35.33;10.05;;;;;;;;;;5121448;27;20078;-76
2021/06/21 02:56:08;;;;;;;26.65;9.32;;;;;;;;;;5122540;27;20039;-75
2021/06/21 02:58:44;;;;;;;28.63;9.93;;;;;;;;;;5104251;28;20015;-75
2021/06/21 03:01:12;;;;;;;27.25;10.40;;;;;;;;;;5113332;27;20035;-75
2021/06/21 03:03:38;;;;;;;;;;;;;;;;;;5114002;27;20482;-75
2021/06/21 03:06:05;;;;;;;32.67;10.57;;;;;;;;;;5115364;27;19915;-76
2021/06/21 03:08:31;;;;;;;29.92;10.70;;;;;;;;;;5119605;27;20034;-75
2021/06/21 03:10:58;;;;;;;30.92;10.80;;;;;;;;;;5113464;27;20102;-75
2021/06/21 03:13:25;;;;;;;30.90;11.23;;;;;;;;;;5116600;27;20042;-76
2021/06/21 03:15:52;;;;;;;28.23;10.65;;;;;;;;;;5125216;27;20098;-75
2021/06/21 03:18:20;;;;;;;42.22;11.85;;;;;;;;;;5114840;27;20032;-75
2021/06/21 03:20:50;;;;;;;30.85;10.25;;;;;;;;;;5132488;27;20034;-76
2021/06/21 03:23:16;;;;;;;33.28;10.82;;;;;;;;;;5114979;27;20553;-76
2021/06/21 03:25:42;;;;;;;27.38;10.02;;;;;;;;;;5116209;27;20355;-75
2021/06/21 03:28:09;;;;;;;28.70;11.00;;;;;;;;;;5125397;27;20038;-74
2021/06/21 03:30:35;;;;;;;;;;;;;;;;;;5104004;28;20051;-75
2021/06/21 03:33:01;;;;;;;33.88;11.32;;;;;;;;;;5113552;27;20367;-74
2021/06/21 03:35:28;;;;;;;32.60;11.05;;;;;;;;;;5120341;27;20047;-75
2021/06/21 03:37:54;;;;;;;40.38;11.77;;;;;;;;;;5113484;28;20521;-75
2021/06/21 03:40:21;;;;;;;28.90;10.82;;;;;;;;;;5113260;28;20091;-75
2021/06/21 03:42:47;;;;;;;35.05;11.32;;;;;;;;;;5124426;27;20027;-75
2021/06/21 03:45:13;;;;;;;37.33;10.85;;;;;;;;;;5117334;27;20035;-75
2021/06/21 03:47:40;;;;;;;31.20;10.80;;;;;;;;;;5112915;27;20011;-75
2021/06/21 03:50:06;;;;;;;;;;;;;;;;;;5121019;27;20028;-75
2021/06/21 03:52:32;;;;;;;36.03;11.25;;;;;;;;;;5121129;27;20361;-75
2021/06/21 03:55:08;;;;;;;31.88;11.27;;;;;;;;;;5112541;28;20051;-75
2021/06/21 03:57:35;;;;;;;31.20;11.23;;;;;;;;;;5120454;27;20481;-76
2021/06/21 04:00:01;;;;;;;32.08;10.85;;;;;;;;;;5132315;27;20212;-75
2021/06/21 04:02:27;;;;;;;26.75;10.02;;;;;;;;;;5118213;27;20164;-75
2021/06/21 04:04:53;;;;;;;39.28;11.38;;;;;;;;;;5129551;27;20035;-75
2021/06/21 04:07:19;;;;;;;28.33;10.25;;;;;;;;;;5114717;27;20381;-76
2021/06/21 04:09:45;;;;;;;33.40;10.68;;;;;;;;;;5131661;27;20027;-75
2021/06/21 04:12:11;;;;;;;39.40;11.32;;;;;;;;;;5120647;27;20031;-75
2021/06/21 04:14:37;;;;;;;37.03;11.20;;;;;;;;;;5099294;27;20126;-74
2021/06/21 04:17:03;;;;;;;34.10;12.75;;;;;;;;;;5132034;27;20110;-75
2021/06/21 04:19:29;;;;;;;41.28;10.20;;;;;;;;;;5111990;28;20026;-75
2021/06/21 04:21:55;;;;;;;39.42;11.75;;;;;;;;;;5112319;27;20110;-76
2021/06/21 04:24:21;;;;;;;41.03;12.35;;;;;;;;;;5113938;27;20099;-76
2021/06/21 04:26:47;;;;;;;36.70;11.52;;;;;;;;;;5132305;27;20134;-75
2021/06/21 04:29:13;;;;;;;35.60;12.07;;;;;;;;;;5132018;27;20076;-76
2021/06/21 04:31:39;;;;;;;32.90;11.45;;;;;;;;;;5120679;27;20452;-76
2021/06/21 04:34:05;;;;;;;30.63;12.45;;;;;;;;;;5111821;27;20081;-75
2021/06/21 04:36:31;;;;;;;35.85;12.30;;;;;;;;;;5111659;27;20118;-75
2021/06/21 04:38:57;;;;;;;29.08;11.25;;;;;;;;;;5117025;27;20045;-74
2021/06/21 04:41:23;;;;;;;38.47;11.52;;;;;;;;;;5123355;27;20032;-74
2021/06/21 04:43:49;;;;;;;37.95;12.48;;;;;;;;;;5111674;27;20064;-74
2021/06/21 04:46:15;;;;;;;38.85;10.88;;;;;;;;;;5117682;27;20051;-75
2021/06/21 04:48:42;;;;;;;35.35;11.50;;;;;;;;;;5130139;27;20437;-74
2021/06/21 04:51:08;;;;;;;;;;;;;;;;;;5120455;27;20273;-75
2021/06/21 04:53:34;;;;;;;39.93;11.57;;;;;;;;;;5119764;27;20550;-74
2021/06/21 04:56:00;;;;;;;33.30;11.68;;;;;;;;;;5110749;28;20043;-76
2021/06/21 04:58:26;;;;;;;38.58;10.90;;;;;;;;;;5092549;28;20480;-76
2021/06/21 05:00:52;;;;;;;25.27;11.30;;;;;;;;;;5120629;27;20103;-76
2021/06/21 05:03:18;;;;;;;35.20;10.20;;;;;;;;;;5112019;28;20153;-75
2021/06/21 05:05:44;;;;;;;30.77;11.07;;;;;;;;;;5119552;27;20477;-75
2021/06/21 05:08:10;;;;;;;29.63;9.93;;;;;;;;;;5118622;27;20029;-76
2021/06/21 05:10:36;;;;;;;32.50;10.65;;;;;;;;;;5111469;28;20117;-74
2021/06/21 05:13:02;;;;;;;24.33;9.68;;;;;;;;;;5093101;28;20118;-75
2021/06/21 05:15:28;;;;;;;35.78;11.10;;;;;;;;;;5118304;27;20089;-75
2021/06/21 05:17:55;;;;;;;33.10;10.20;;;;;;;;;;5111339;28;20112;-75
2021/06/21 05:20:21;;;;;;;34.38;11.68;;;;;;;;;;5111279;27;20043;-75
2021/06/21 05:22:49;;;;;;;36.90;10.00;;;;;;;;;;5100742;28;20118;-75
2021/06/21 05:25:15;;;;;;;38.08;11.32;;;;;;;;;;5129274;27;20016;-76
2021/06/21 05:27:41;;;;;;;40.83;11.05;;;;;;;;;;5130975;27;20019;-75
2021/06/21 05:30:07;;;;;;;27.90;10.15;;;;;;;;;;5112277;27;20100;-76
2021/06/21 05:32:33;;;;;;;33.17;10.83;;;;;;;;;;5111105;28;20065;-76
2021/06/21 05:34:59;;;;;;;43.97;11.13;;;;;;;;;;5111264;27;20051;-75
2021/06/21 05:37:25;;;;;;;34.15;11.05;;;;;;;;;;5093218;28;20031;-76
2021/06/21 05:39:51;;;;;;;29.23;10.90;;;;;;;;;;5110336;28;20128;-76
2021/06/21 05:42:18;;;;;;;32.10;10.60;;;;;;;;;;5113315;27;20481;-75
2021/06/21 05:44:44;;;;;;;27.25;10.32;;;;;;;;;;5116596;27;20027;-75
2021/06/21 05:47:10;;;;;;;31.52;10.70;;;;;;;;;;5110514;28;20039;-74
2021/06/21 05:49:36;;;;;;;28.73;11.23;;;;;;;;;;5115614;27;20023;-75
2021/06/21 05:52:02;;;;;;;30.05;10.80;;;;;;;;;;5113026;27;20038;-74
2021/06/21 05:54:28;;;;;;;30.63;9.80;;;;;;;;;;5111865;27;20109;-74
2021/06/21 05:56:54;;;;;;;27.98;10.98;;;;;;;;;;5117171;27;20039;-75
2021/06/21 05:59:20;;;;;;;29.73;10.45;;;;;;;;;;5119856;27;20031;-75
2021/06/21 06:01:46;;;;;;;38.00;11.10;;;;;;;;;;5110631;28;20024;-76
2021/06/21 06:04:12;;;;;;;31.08;10.95;;;;;;;;;;5118420;28;20168;-76
2021/06/21 06:06:38;;;;;;;33.75;11.27;;;;;;;;;;5129301;28;20501;-76
2021/06/21 06:09:04;;;;;;;30.23;11.35;;;;;;;;;;5127495;27;20023;-75
2021/06/21 06:11:30;;;;;;;33.90;11.18;;;;;;;;;;5125350;27;20028;-75
2021/06/21 06:13:56;;;;;;;33.88;10.90;;;;;;;;;;5125732;27;20444;-75
2021/06/21 06:16:22;;;;;;;34.28;10.88;;;;;;;;;;5117148;27;20033;-75
2021/06/21 06:18:48;;;;;;;39.22;12.65;;;;;;;;;;5107188;28;20034;-74
2021/06/21 06:21:17;;;;;;;30.75;11.55;;;;;;;;;;5117474;27;20035;-75
2021/06/21 06:23:43;;;;;;;32.78;10.68;;;;;;;;;;5118324;27;20020;-75
2021/06/21 06:26:09;;;;;;;34.20;12.48;;;;;;;;;;5126455;27;20030;-75
2021/06/21 06:28:38;;;;;;;32.27;12.23;;;;;;;;;;5118103;27;20049;-75
2021/06/21 06:31:04;;;;;;;31.70;10.75;;;;;;;;;;5117457;27;20031;-75
2021/06/21 06:33:30;;;;;;;43.38;11.95;;;;;;;;;;5118041;27;20031;-76
2021/06/21 06:35:56;;;;;;;35.28;10.45;;;;;;;;;;5118569;27;20035;-76
2021/06/21 06:38:22;;;;;;;29.65;11.02;;;;;;;;;;5116453;27;20489;-75
2021/06/21 06:40:48;;;;;;;43.53;11.90;;;;;;;;;;5127725;27;20049;-75
2021/06/21 06:43:14;;;;;;;38.67;11.07;;;;;;;;;;5137800;27;20455;-75
2021/06/21 06:45:40;;;;;;;39.87;11.23;;;;;;;;;;5127123;27;20027;-76
2021/06/21 06:48:06;;;;;;;46.72;11.40;;;;;;;;;;5116992;27;20361;-75
2021/06/21 06:50:32;;;;;;;30.35;11.02;;;;;;;;;;5117581;27;20098;-75
2021/06/21 06:53:00;;;;;;;32.28;10.93;;;;;;;;;;5119294;27;20426;-76
2021/06/21 06:58:11;;;;;;;38.70;12.20;;;;;;;;;;5116660;27;20066;-76
2021/06/21 07:00:37;;;;;;;37.63;11.43;;;;;;;;;;5124583;27;20445;-74
2021/06/21 07:03:03;;;;;;;31.63;11.80;;;;;;;;;;5110642;27;20023;-76
2021/06/21 07:05:29;;;;;;;35.47;12.15;;;;;;;;;;5129813;27;20098;-75
2021/06/21 07:07:56;;;;;;;39.58;12.27;;;;;;;;;;5125101;27;20043;-75
2021/06/21 07:10:22;;;;;;;37.10;12.20;;;;;;;;;;5117534;27;20181;-75
2021/06/21 07:12:48;;;;;;;37.97;12.82;;;;;;;;;;5116028;27;20053;-73
2021/06/21 07:15:14;;;;;;;40.50;11.70;;;;;;;;;;5118100;27;20031;-76
2021/06/21 07:17:40;;;;;;;41.13;11.60;;;;;;;;;;5132140;27;20062;-76
2021/06/21 07:20:07;;;;;;;41.47;12.27;;;;;;;;;;5114164;27;20309;-75
2021/06/21 07:22:33;;;;;;;46.17;10.83;;;;;;;;;;5128332;27;20102;-75
2021/06/21 07:24:59;;;;;;;36.08;9.35;;;;;;;;;;5130916;27;20110;-75
2021/06/21 07:27:26;;;;;;;38.83;11.27;;;;;;;;;;5112988;28;20538;-75
2021/06/21 07:29:52;;;;;;;;;;;;;;;;;;5121297;27;20039;-75
2021/06/21 07:32:18;;;;;;;42.97;9.63;;;;;;;;;;5113637;28;19907;-76
2021/06/21 07:34:44;;;;;;;41.80;9.83;;;;;;;;;;5112848;27;20035;-75
2021/06/21 07:37:10;;;;;;;36.97;9.38;;;;;;;;;;5120799;27;20814;-76
2021/06/21 07:39:36;;;;;;;39.10;9.82;;;;;;;;;;5113105;27;20043;-75
2021/06/21 07:42:02;;;;;;;32.87;8.97;;;;;;;;;;5113297;27;20056;-76
2021/06/21 07:44:29;;;;;;;42.63;9.18;;;;;;;;;;5124738;27;20027;-74
2021/06/21 07:46:55;;;;;;;46.45;11.00;;;;;;;;;;5124740;27;20026;-76
2021/06/21 07:49:21;;;;;;;34.05;9.30;;;;;;;;;;5122594;27;20032;-74
2021/06/21 07:51:47;;;;;;;36.42;9.38;;;;;;;;;;5128083;27;20462;-75
2021/06/21 07:54:14;;;;;;;45.55;9.60;;;;;;;;;;5112543;27;20189;-75
2021/06/21 07:56:40;;;;;;;;;;;;;;;;;;5128419;27;20118;-75
2021/06/21 07:59:06;;;;;;;37.50;10.33;;;;;;;;;;5111994;28;20317;-74
2021/06/21 08:01:32;;;;;;;45.03;9.70;;;;;;;;;;5113009;28;20266;-75
2021/06/21 08:03:58;;;;;;;46.50;9.07;;;;;;;;;;5113992;27;20028;-74
2021/06/21 08:06:24;;;;;;;36.83;9.85;;;;;;;;;;5112148;27;20477;-75
2021/06/21 08:08:50;;;;;;;50.33;9.73;;;;;;;;;;5112053;28;20038;-75
2021/06/21 08:11:16;;;;;;;37.25;8.75;;;;;;;;;;5121797;27;20027;-75
2021/06/21 08:13:42;;;;;;;45.50;10.17;;;;;;;;;;5128369;27;20115;-75
2021/06/21 08:16:09;;;;;;;41.83;10.17;;;;;;;;;;5118166;27;20043;-74
2021/06/21 08:18:35;;;;;;;38.33;9.10;;;;;;;;;;5112052;28;20104;-75
2021/06/21 08:21:01;;;;;;;37.00;9.33;;;;;;;;;;5093805;28;20032;-76
2021/06/21 08:23:28;;;;;;;50.92;9.75;;;;;;;;;;5120049;27;20040;-75
2021/06/21 08:25:54;;;;;;;43.58;8.32;;;;;;;;;;5112571;28;20108;-75
2021/06/21 08:28:20;;;;;;;41.77;8.73;;;;;;;;;;5112786;27;20037;-74
2021/06/21 08:30:47;;;;;;;41.30;8.40;;;;;;;;;;5112114;28;20044;-75
2021/06/21 08:33:13;;;;;;;45.03;9.02;;;;;;;;;;5111750;28;20112;-74
2021/06/21 08:35:39;;;;;;;45.50;8.47;;;;;;;;;;5114250;27;20172;-75
2021/06/21 08:38:05;;;;;;;52.50;8.73;;;;;;;;;;5132178;27;20544;-74
2021/06/21 08:40:33;;;;;;;45.07;8.93;;;;;;;;;;5113029;27;20046;-74
2021/06/21 08:43:00;;;;;;;41.72;9.57;;;;;;;;;;5127435;27;20016;-75
2021/06/21 08:45:27;;;;;;;40.38;8.98;;;;;;;;;;5130635;27;20027;-73
2021/06/21 08:47:53;;;;;;;57.40;9.05;;;;;;;;;;5111845;28;20485;-74
2021/06/21 08:50:20;;;;;;;45.67;9.53;;;;;;;;;;5118123;27;20035;-75
2021/06/21 08:52:46;;;;;;;42.70;9.25;;;;;;;;;;5131504;27;20088;-75
2021/06/21 08:55:13;;;;;;;45.25;8.68;;;;;;;;;;5132116;27;20035;-75
2021/06/21 08:57:41;;;;;;;45.92;8.50;;;;;;;;;;5114282;27;20026;-75
2021/06/21 09:00:08;;;;;;;42.65;8.02;;;;;;;;;;5113156;27;20020;-75
2021/06/21 09:02:34;;;;;;;52.15;8.80;;;;;;;;;;5113289;28;20489;-74
2021/06/21 09:05:01;;;;;;;37.42;7.85;;;;;;;;;;5123248;27;20027;-75
2021/06/21 09:07:27;;;;;;;45.97;8.50;;;;;;;;;;5123318;27;20023;-75
2021/06/21 09:09:54;;;;;;;43.85;9.10;;;;;;;;;;5122801;27;20114;-74
2021/06/21 09:12:20;;;;;;;;;;;;;;;;;;5117207;27;20032;-75
2021/06/21 09:14:47;;;;;;;46.53;8.18;;;;;;;;;;5128727;27;19912;-76
2021/06/21 09:17:13;;;;;;;47.40;9.85;;;;;;;;;;5127162;27;20381;-76
2021/06/21 09:19:45;;;;;;;54.70;8.53;;;;;;;;;;5111596;27;20023;-74
2021/06/21 09:22:25;;;;;;;49.97;9.77;;;;;;;;;;5110939;28;20078;-75
2021/06/21 09:24:51;;;;;;;48.40;9.65;;;;;;;;;;5112218;27;20165;-75
2021/06/21 09:27:18;;;;;;;47.95;8.93;;;;;;;;;;5131539;27;20026;-75
2021/06/21 09:29:44;;;;;;;51.40;10.05;;;;;;;;;;5122724;27;20214;-75
2021/06/21 09:32:10;;;;;;;36.33;8.10;;;;;;;;;;5111830;27;20042;-75
2021/06/21 09:34:39;;;;;;;50.53;9.50;;;;;;;;;;5110377;28;20027;-75
2021/06/21 09:37:10;;;;;;;47.60;9.43;;;;;;;;;;5122760;27;20305;-74
2021/06/21 09:39:44;;;;;;;63.30;10.48;;;;;;;;;;5119241;27;20367;-75
2021/06/21 09:42:13;;;;;;;54.22;9.32;;;;;;;;;;5112652;28;20039;-75
2021/06/21 09:44:41;;;;;;;45.38;9.35;;;;;;;;;;5122041;27;20484;-74
2021/06/21 09:47:18;;;;;;;52.40;9.77;;;;;;;;;;5109892;27;20030;-75
2021/06/21 09:50:03;;;;;;;52.28;9.52;;;;;;;;;;5119568;27;20114;-74
2021/06/21 09:52:44;;;;;;;53.35;8.80;;;;;;;;;;5123774;27;20034;-74
2021/06/21 09:55:14;;;;;;;50.42;9.13;;;;;;;;;;5119461;27;20039;-75
2021/06/21 09:57:41;;;;;;;42.15;8.40;;;;;;;;;;5118263;27;20470;-74
2021/06/21 10:00:09;;;;;;;55.30;9.52;;;;;;;;;;5118864;27;20381;-75
2021/06/21 10:02:35;;;;;;;59.45;10.23;;;;;;;;;;5123909;27;20043;-75
2021/06/21 10:05:02;;;;;;;53.30;10.52;;;;;;;;;;5113476;27;20028;-76
2021/06/21 10:07:35;;;;;;;58.58;9.45;;;;;;;;;;5110818;28;20540;-74
2021/06/21 10:10:04;;;;;;;46.65;9.32;;;;;;;;;;5110613;28;20056;-74
2021/06/21 10:12:30;;;;;;;48.85;8.35;;;;;;;;;;5128823;28;20035;-74
2021/06/21 10:14:56;;;;;;;53.37;10.50;;;;;;;;;;5130567;28;20031;-74
2021/06/21 10:17:23;;;;;;;49.75;10.20;;;;;;;;;;5119076;28;20257;-75
2021/06/21 10:19:49;;;;;;;54.00;9.85;;;;;;;;;;5109843;28;20035;-74
2021/06/21 10:22:15;;;;;;;60.40;8.95;;;;;;;;;;5111043;28;20043;-74
2021/06/21 10:24:41;;;;;;;53.05;9.38;;;;;;;;;;5116136;28;20034;-75
2021/06/21 10:27:07;;;;;;;55.85;9.07;;;;;;;;;;5129319;28;20023;-76
2021/06/21 10:29:35;;;;;;;65.70;9.60;;;;;;;;;;5122974;28;20433;-75
2021/06/21 10:32:01;;;;;;;37.28;8.45;;;;;;;;;;5114555;28;20031;-74
2021/06/21 10:34:27;;;;;;;49.60;8.32;;;;;;;;;;5113540;28;20027;-75
2021/06/21 10:36:55;;;;;;;52.05;10.63;;;;;;;;;;5122084;28;20032;-75
2021/06/21 10:39:22;;;;;;;46.42;9.27;;;;;;;;;;5111818;28;20039;-75
2021/06/21 10:42:06;;;;;;;46.83;9.63;;;;;;;;;;5109759;28;20032;-78
2021/06/21 10:44:38;;;;;;;62.75;10.15;;;;;;;;;;5110430;28;20027;-75
2021/06/21 10:47:24;;;;;;;52.65;8.55;;;;;;;;;;5118326;28;20039;-75
2021/06/21 10:49:54;;;;;;;44.72;9.55;;;;;;;;;;5124135;28;20055;-75
2021/06/21 10:52:32;;;;;;;41.95;8.27;;;;;;;;;;5120775;28;20093;-75
2021/06/21 10:55:17;;;;;;;49.95;9.60;;;;;;;;;;5116040;28;20074;-75
2021/06/21 10:57:43;;;;;;;50.83;9.38;;;;;;;;;;5114204;28;20477;-75
2021/06/21 11:00:15;;;;;;;46.30;9.40;;;;;;;;;;5121876;27;20039;-74
2021/06/21 11:02:41;;;;;;;40.65;9.15;;;;;;;;;;5113574;28;20466;-75
2021/06/21 11:05:09;;;;;;;42.10;9.00;;;;;;;;;;5129250;27;20325;-75
2021/06/21 11:07:35;;;;;;;43.55;8.07;;;;;;;;;;5103166;28;20024;-75
2021/06/21 11:10:04;;;;;;;55.60;9.18;;;;;;;;;;5113399;28;20254;-75
2021/06/21 11:12:30;;;;;;;39.92;7.32;;;;;;;;;;5095304;28;20101;-76
2021/06/21 11:15:08;;;;;;;44.67;7.80;;;;;;;;;;5127298;27;20423;-75
2021/06/21 11:17:44;;;;;;;38.55;7.85;;;;;;;;;;5113936;27;20051;-76
2021/06/21 11:20:28;;;;;;;45.90;8.60;;;;;;;;;;5113321;28;20027;-74
2021/06/21 11:22:57;;;;;;;42.83;7.60;;;;;;;;;;5113279;27;20032;-76
2021/06/21 11:25:27;;;;;;;46.35;8.65;;;;;;;;;;5113020;28;20035;-75
2021/06/21 11:27:53;;;;;;;35.92;8.27;;;;;;;;;;5117765;27;20102;-76
2021/06/21 11:30:26;;;;;;;38.63;8.15;;;;;;;;;;5116526;27;20277;-73
2021/06/21 11:32:53;;;;;;;38.33;7.57;;;;;;;;;;5114541;27;20350;-75
2021/06/21 11:35:39;;;;;;;33.03;7.90;;;;;;;;;;5116537;27;20438;-75
2021/06/21 11:38:23;;;;;;;44.35;7.55;;;;;;;;;;5121120;27;20118;-75
2021/06/21 11:41:09;;;;;;;40.90;7.47;;;;;;;;;;5121298;27;20034;-74
2021/06/21 11:44:04;;;;;;;33.83;7.00;;;;;;;;;;5128440;27;20452;-75
2021/06/21 11:46:36;;;;;;;39.17;8.10;;;;;;;;;;5096711;27;20035;-73
2021/06/21 11:49:06;;;;;;;45.08;7.38;;;;;;;;;;5119621;27;20020;-76
2021/06/21 11:51:32;;;;;;;39.17;7.30;;;;;;;;;;5112769;28;20355;-75
2021/06/21 11:53:59;;;;;;;31.15;7.80;;;;;;;;;;5115924;27;20131;-75
2021/06/21 11:56:26;;;;;;;39.03;7.50;;;;;;;;;;5098093;28;20043;-75
2021/06/21 11:58:54;;;;;;;35.53;8.57;;;;;;;;;;5112426;28;20110;-75
2021/06/21 12:01:25;;;;;;;36.13;7.00;;;;;;;;;;5120726;27;20020;-74
2021/06/21 12:04:09;;;;;;;36.47;7.22;;;;;;;;;;5112154;28;20036;-75
2021/06/21 12:06:36;;;;;;;41.38;7.60;;;;;;;;;;5111935;27;20028;-75
2021/06/21 12:09:02;;;;;;;;;;;;;;;;;;5125207;27;20053;-75
2021/06/21 12:11:29;;;;;;;31.90;7.00;;;;;;;;;;5116591;27;20387;-74
2021/06/21 12:13:55;;;;;;;;;;;;;;;;;;5112170;28;20031;-75
2021/06/21 12:16:21;;;;;;;41.28;8.20;;;;;;;;;;5120912;27;20380;-75
2021/06/21 12:18:51;;;;;;;42.88;8.13;;;;;;;;;;5112159;27;20353;-74
2021/06/21 12:21:29;;;;;;;29.38;6.85;;;;;;;;;;5117860;27;20392;-75
2021/06/21 12:23:55;;;;;;;41.88;7.05;;;;;;;;;;5122664;27;20043;-75
2021/06/21 12:26:21;;;;;;;28.38;7.07;;;;;;;;;;5132278;27;20043;-75
2021/06/21 12:28:47;;;;;;;31.60;6.90;;;;;;;;;;5114738;27;20028;-75
2021/06/21 12:31:17;;;;;;;37.33;7.20;;;;;;;;;;5131144;27;20027;-75
2021/06/21 12:33:44;;;;;;;37.92;7.25;;;;;;;;;;5114691;27;20433;-75
2021/06/21 12:36:11;;;;;;;28.92;6.75;;;;;;;;;;5115654;27;20070;-75
2021/06/21 12:38:39;;;;;;;28.60;6.65;;;;;;;;;;5123562;27;20019;-75
2021/06/21 12:41:16;;;;;;;31.45;6.88;;;;;;;;;;5111849;27;20088;-75
2021/06/21 12:43:51;;;;;;;30.17;6.75;;;;;;;;;;5120265;27;20490;-74
2021/06/21 12:46:18;;;;;;;35.45;7.25;;;;;;;;;;5111620;28;20035;-76
2021/06/21 12:48:44;;;;;;;34.03;6.70;;;;;;;;;;5111383;28;20026;-75
2021/06/21 12:51:12;;;;;;;32.35;7.82;;;;;;;;;;5123635;27;20038;-77
2021/06/21 12:53:42;;;;;;;30.65;7.05;;;;;;;;;;5124213;27;20035;-76
2021/06/21 12:56:07;;;;;;;40.33;6.95;;;;;;;;;;5122964;27;19976;-76
2021/06/21 12:58:33;;;;;;;30.55;6.32;;;;;;;;;;5116752;27;20016;-76
2021/06/21 13:01:00;;;;;;;28.30;6.47;;;;;;;;;;5111722;28;20099;-76
2021/06/21 13:03:26;;;;;;;29.00;7.00;;;;;;;;;;5111875;28;20025;-76
2021/06/21 13:05:57;;;;;;;37.10;7.57;;;;;;;;;;5118743;27;20031;-76
2021/06/21 13:08:31;;;;;;;29.10;6.47;;;;;;;;;;5111468;28;20375;-76
2021/06/21 13:11:11;;;;;;;31.73;6.97;;;;;;;;;;5111977;27;20039;-76
2021/06/21 13:13:47;;;;;;;38.83;6.70;;;;;;;;;;5123237;27;20047;-75
2021/06/21 13:16:14;;;;;;;22.15;6.35;;;;;;;;;;5122617;27;20054;-77
2021/06/21 13:18:50;;;;;;;32.00;6.25;;;;;;;;;;5123766;27;20020;-77
2021/06/21 13:21:16;;;;;;;32.72;7.45;;;;;;;;;;5119793;27;20054;-76
2021/06/21 13:23:46;;;;;;;27.58;7.03;;;;;;;;;;5111133;28;20038;-77
2021/06/21 13:26:12;;;;;;;28.55;6.63;;;;;;;;;;5121296;27;20117;-76
2021/06/21 13:28:43;;;;;;;24.25;6.63;;;;;;;;;;5116997;27;20058;-76
2021/06/21 13:31:09;;;;;;;26.98;7.65;;;;;;;;;;5092198;28;20031;-76
2021/06/21 13:33:44;;;;;;;35.22;7.22;;;;;;;;;;5122563;27;20207;-77
2021/06/21 13:36:10;;;;;;;32.47;7.22;;;;;;;;;;5119921;27;20040;-76
2021/06/21 13:38:36;;;;;;;29.23;6.70;;;;;;;;;;5111041;28;20084;-76
2021/06/21 13:41:04;;;;;;;31.85;6.53;;;;;;;;;;5127276;27;20393;-76
2021/06/21 13:43:31;;;;;;;25.17;6.65;;;;;;;;;;5110721;28;20023;-76
2021/06/21 13:46:13;;;;;;;30.02;6.78;;;;;;;;;;5110509;28;20059;-76
2021/06/21 13:48:40;;;;;;;31.58;6.78;;;;;;;;;;5110990;28;20020;-75
2021/06/21 13:51:10;;;;;;;25.83;5.82;;;;;;;;;;5111145;28;20516;-76
2021/06/21 13:53:37;;;;;;;33.75;7.00;;;;;;;;;;5115031;27;20035;-76
2021/06/21 13:56:11;;;;;;;33.28;6.55;;;;;;;;;;5113663;27;20505;-74
2021/06/21 13:58:46;;;;;;;28.13;6.43;;;;;;;;;;5118830;27;20419;-75
2021/06/21 14:01:20;;;;;;;25.57;6.93;;;;;;;;;;5119680;27;20469;-76
2021/06/21 14:03:47;;;;;;;27.90;7.03;;;;;;;;;;5116549;27;20096;-76
2021/06/21 14:06:14;;;;;;;33.15;7.32;;;;;;;;;;5110533;28;20027;-75
2021/06/21 14:08:40;;;;;;;28.92;7.32;;;;;;;;;;5110297;28;20042;-76
2021/06/21 14:11:07;;;;;;;31.70;6.70;;;;;;;;;;5129253;28;20110;-75
2021/06/21 14:13:35;;;;;;;38.95;7.10;;;;;;;;;;5122068;28;20023;-77
2021/06/21 14:16:01;;;;;;;28.98;6.55;;;;;;;;;;5120376;28;20031;-75
2021/06/21 14:18:27;;;;;;;;;;;;;;;;;;5127281;28;20378;-76
2021/06/21 14:20:53;;;;;;;34.85;7.00;;;;;;;;;;5116515;28;19915;-75
2021/06/21 14:23:20;;;;;;;31.50;6.78;;;;;;;;;;5111395;28;20377;-75
2021/06/21 14:25:46;;;;;;;27.60;7.10;;;;;;;;;;5110608;28;20031;-75
2021/06/21 14:28:12;;;;;;;25.77;7.03;;;;;;;;;;5110037;28;20035;-75
2021/06/21 14:30:38;;;;;;;32.90;7.63;;;;;;;;;;5123381;27;20050;-74
2021/06/21 14:33:05;;;;;;;35.47;7.57;;;;;;;;;;5127651;27;20377;-75
2021/06/21 14:35:31;;;;;;;;;;;;;;;;;;5122841;27;20112;-76